createdAt,value
2022-07-31T00:02:08.786Z,23.30
2022-07-31T00:04:35.736Z,23.30
2022-07-31T00:07:03.036Z,23.30
2022-07-31T00:09:52.309Z,23.30
2022-07-31T00:12:17.757Z,23.40
2022-07-31T00:14:45.198Z,23.40
2022-07-31T00:17:12.145Z,23.30
2022-07-31T00:19:39.061Z,23.30
2022-07-31T00:22:05.972Z,23.30
2022-07-31T00:24:32.886Z,23.20
2022-07-31T00:27:00.255Z,23.30
2022-07-31T00:29:27.318Z,23.20
2022-07-31T00:31:54.197Z,23.20
2022-07-31T00:34:21.097Z,23.20
2022-07-31T00:36:47.972Z,23.20
2022-07-31T00:39:14.973Z,23.10
2022-07-31T00:41:43.306Z,23.20
2022-07-31T00:44:12.646Z,23.10
2022-07-31T00:46:40.401Z,23.00
2022-07-31T00:49:08.776Z,23.00
2022-07-31T00:51:36.230Z,22.90
2022-07-31T00:54:03.140Z,23.00
2022-07-31T00:56:30.051Z,23.00
2022-07-31T00:58:56.962Z,23.00
2022-07-31T01:01:24.023Z,23.00
2022-07-31T01:03:50.994Z,23.10
2022-07-31T01:06:17.846Z,23.10
2022-07-31T01:08:44.719Z,23.00
2022-07-31T01:11:13.760Z,22.90
2022-07-31T01:13:59.681Z,22.90
2022-07-31T01:16:27.659Z,22.90
2022-07-31T01:18:56.059Z,22.90
2022-07-31T01:21:36.696Z,22.90
2022-07-31T01:24:15.529Z,22.90
2022-07-31T01:26:55.968Z,22.80
2022-07-31T01:29:25.602Z,22.80
2022-07-31T01:31:54.071Z,22.80
2022-07-31T01:34:24.038Z,22.80
2022-07-31T01:36:54.683Z,22.80
2022-07-31T01:39:21.584Z,22.70
2022-07-31T01:41:48.895Z,22.70
2022-07-31T01:44:15.864Z,22.70
2022-07-31T01:46:43.936Z,22.70
2022-07-31T01:49:11.325Z,22.70
2022-07-31T01:51:39.527Z,22.70
2022-07-31T01:54:06.405Z,22.70
2022-07-31T01:56:33.552Z,22.60
2022-07-31T01:59:00.592Z,22.60
2022-07-31T02:01:27.801Z,22.50
2022-07-31T02:03:56.159Z,22.50
2022-07-31T02:06:23.481Z,22.50
2022-07-31T02:08:50.700Z,22.50
2022-07-31T02:11:18.446Z,22.40
2022-07-31T02:13:45.651Z,22.50
2022-07-31T02:16:13.273Z,22.40
2022-07-31T02:18:40.425Z,22.30
2022-07-31T02:21:09.653Z,22.30
2022-07-31T02:23:38.520Z,22.30
2022-07-31T02:26:07.371Z,22.30
2022-07-31T02:28:35.099Z,22.30
2022-07-31T02:31:02.004Z,22.20
2022-07-31T02:33:28.846Z,22.20
2022-07-31T02:35:56.027Z,22.20
2022-07-31T02:38:24.713Z,22.20
2022-07-31T02:40:51.830Z,22.30
2022-07-31T02:43:18.721Z,22.30
2022-07-31T02:45:45.606Z,22.20
2022-07-31T02:48:12.539Z,22.20
2022-07-31T02:50:40.110Z,22.20
2022-07-31T02:53:07.190Z,22.20
2022-07-31T02:55:34.052Z,22.20
2022-07-31T02:58:01.783Z,22.20
2022-07-31T03:00:28.690Z,22.20
2022-07-31T03:02:55.708Z,22.10
2022-07-31T03:05:22.784Z,22.10
2022-07-31T03:07:49.711Z,22.10
2022-07-31T03:10:16.674Z,22.10
2022-07-31T03:12:44.887Z,22.10
2022-07-31T03:15:12.738Z,22.10
2022-07-31T03:17:41.146Z,22.10
2022-07-31T03:20:09.132Z,22.10
2022-07-31T03:22:36.023Z,22.10
2022-07-31T03:25:03.581Z,22.10
2022-07-31T03:27:30.561Z,22.10
2022-07-31T03:29:57.494Z,22.10
2022-07-31T03:32:24.400Z,22.10
2022-07-31T03:34:51.302Z,22.10
2022-07-31T03:37:18.164Z,22.10
2022-07-31T03:39:45.063Z,22.20
2022-07-31T03:42:18.716Z,22.20
2022-07-31T03:44:46.039Z,22.20
2022-07-31T03:47:13.010Z,22.10
2022-07-31T03:49:43.408Z,22.10
2022-07-31T03:52:12.513Z,22.10
2022-07-31T03:54:40.209Z,22.10
2022-07-31T03:57:07.113Z,22.20
2022-07-31T03:59:34.786Z,22.20
2022-07-31T04:02:08.183Z,22.20
2022-07-31T04:04:37.719Z,22.20
2022-07-31T04:07:05.180Z,22.30
2022-07-31T04:09:32.253Z,22.30
2022-07-31T04:11:59.243Z,22.30
2022-07-31T04:14:26.140Z,22.40
2022-07-31T04:16:52.988Z,22.50
2022-07-31T04:19:19.977Z,22.40
2022-07-31T04:21:46.847Z,22.40
2022-07-31T04:24:17.147Z,22.40
2022-07-31T04:26:48.756Z,22.40
2022-07-31T04:29:15.695Z,22.40
2022-07-31T04:31:42.651Z,22.40
2022-07-31T04:34:09.527Z,22.40
2022-07-31T04:36:36.414Z,22.40
2022-07-31T04:39:03.245Z,22.40
2022-07-31T04:41:30.126Z,22.40
2022-07-31T04:44:00.041Z,22.40
2022-07-31T04:46:26.918Z,22.40
2022-07-31T04:48:53.934Z,22.40
2022-07-31T04:51:21.307Z,22.50
2022-07-31T04:53:48.425Z,22.50
2022-07-31T04:56:33.589Z,22.60
2022-07-31T04:59:01.313Z,22.60
2022-07-31T05:01:28.220Z,22.70
2022-07-31T05:03:55.212Z,22.70
2022-07-31T05:06:22.471Z,22.70
2022-07-31T05:08:49.341Z,22.80
2022-07-31T05:11:25.700Z,22.80
2022-07-31T05:13:56.470Z,22.90
2022-07-31T05:16:23.564Z,22.90
2022-07-31T05:18:51.714Z,22.90
2022-07-31T05:21:19.160Z,23.00
2022-07-31T05:23:46.889Z,23.00
2022-07-31T05:26:13.871Z,23.00
2022-07-31T05:28:40.893Z,23.20
2022-07-31T05:31:07.987Z,23.20
2022-07-31T05:33:34.935Z,23.30
2022-07-31T05:36:02.004Z,23.40
2022-07-31T05:38:28.876Z,23.40
2022-07-31T05:40:55.796Z,23.40
2022-07-31T05:43:22.819Z,23.40
2022-07-31T05:45:51.821Z,23.40
2022-07-31T05:48:18.781Z,23.30
2022-07-31T05:50:46.116Z,23.20
2022-07-31T05:53:15.318Z,23.30
2022-07-31T05:55:42.311Z,23.40
2022-07-31T05:58:12.491Z,23.50
2022-07-31T06:00:42.225Z,23.50
2022-07-31T06:03:09.231Z,23.60
2022-07-31T06:05:39.043Z,23.80
2022-07-31T06:08:06.142Z,23.70
2022-07-31T06:10:35.992Z,23.70
2022-07-31T06:13:03.283Z,23.70
2022-07-31T06:15:35.789Z,23.70
2022-07-31T06:18:03.979Z,23.70
2022-07-31T06:20:31.008Z,23.70
2022-07-31T06:22:58.026Z,23.70
2022-07-31T06:25:25.351Z,23.80
2022-07-31T06:27:59.309Z,23.90
2022-07-31T06:30:28.179Z,23.90
2022-07-31T06:32:55.260Z,24.00
2022-07-31T06:35:22.196Z,23.90
2022-07-31T06:37:50.659Z,24.00
2022-07-31T06:40:17.743Z,24.10
2022-07-31T06:42:45.448Z,24.30
2022-07-31T06:45:21.487Z,24.40
2022-07-31T06:47:56.929Z,24.50
2022-07-31T06:50:23.868Z,24.50
2022-07-31T06:52:50.836Z,24.60
2022-07-31T06:55:18.331Z,24.70
2022-07-31T06:57:45.351Z,24.70
2022-07-31T07:00:20.327Z,24.80
2022-07-31T07:02:47.859Z,24.80
2022-07-31T07:05:16.904Z,24.70
2022-07-31T07:07:44.905Z,24.70
2022-07-31T07:10:11.831Z,24.90
2022-07-31T07:12:38.782Z,25.00
2022-07-31T07:15:06.313Z,25.10
2022-07-31T07:17:33.365Z,25.10
2022-07-31T07:20:00.279Z,25.10
2022-07-31T07:22:31.086Z,25.30
2022-07-31T07:24:59.929Z,25.50
2022-07-31T07:27:26.808Z,25.70
2022-07-31T07:29:53.745Z,25.80
2022-07-31T07:32:20.666Z,25.90
2022-07-31T07:34:47.521Z,26.00
2022-07-31T07:37:14.465Z,26.10
2022-07-31T07:39:41.397Z,26.20
2022-07-31T07:42:08.310Z,26.20
2022-07-31T07:44:35.162Z,26.20
2022-07-31T07:47:02.103Z,26.30
2022-07-31T07:49:29.071Z,26.40
2022-07-31T07:52:10.191Z,26.60
2022-07-31T07:54:37.374Z,26.60
2022-07-31T07:57:04.281Z,26.70
2022-07-31T07:59:31.374Z,26.80
2022-07-31T08:01:58.242Z,26.90
2022-07-31T08:04:25.135Z,27.10
2022-07-31T08:06:53.136Z,27.20
2022-07-31T08:09:21.292Z,27.20
2022-07-31T08:11:48.206Z,27.40
2022-07-31T08:14:15.292Z,27.40
2022-07-31T08:16:42.263Z,27.50
2022-07-31T08:19:09.210Z,27.60
2022-07-31T08:21:36.288Z,27.70
2022-07-31T08:24:03.275Z,27.80
2022-07-31T08:26:53.330Z,27.80
2022-07-31T08:29:27.518Z,27.90
2022-07-31T08:31:55.909Z,28.00
2022-07-31T08:34:30.982Z,28.10
2022-07-31T08:36:58.985Z,28.10
2022-07-31T08:39:25.855Z,28.10
2022-07-31T08:41:52.773Z,28.10
2022-07-31T08:44:25.846Z,28.30
2022-07-31T08:46:57.920Z,28.40
2022-07-31T08:49:25.547Z,28.30
2022-07-31T08:51:52.846Z,28.50
2022-07-31T08:54:19.899Z,28.60
2022-07-31T08:56:52.408Z,28.80
2022-07-31T08:59:20.056Z,28.80
2022-07-31T09:01:46.978Z,28.90
2022-07-31T09:04:13.853Z,29.00
2022-07-31T09:06:40.709Z,29.00
2022-07-31T09:09:07.646Z,29.10
2022-07-31T09:11:35.020Z,29.20
2022-07-31T09:14:03.457Z,29.30
2022-07-31T09:16:31.253Z,29.20
2022-07-31T09:18:58.777Z,29.20
2022-07-31T09:21:26.136Z,29.10
2022-07-31T09:23:54.594Z,29.00
2022-07-31T09:26:32.533Z,28.70
2022-07-31T09:28:59.910Z,28.60
2022-07-31T09:31:32.176Z,28.40
2022-07-31T09:33:59.103Z,28.20
2022-07-31T09:36:26.022Z,28.10
2022-07-31T09:38:53.124Z,28.10
2022-07-31T09:41:56.181Z,28.10
2022-07-31T09:44:10.209Z,28.10
2022-07-31T09:46:41.343Z,28.20
2022-07-31T09:49:08.264Z,28.20
2022-07-31T09:51:39.537Z,28.30
2022-07-31T09:54:06.463Z,28.50
2022-07-31T09:56:33.610Z,28.60
2022-07-31T09:59:00.680Z,29.00
2022-07-31T10:01:27.728Z,29.30
2022-07-31T10:03:55.749Z,29.60
2022-07-31T10:06:22.637Z,29.80
2022-07-31T10:08:49.604Z,30.10
2022-07-31T10:11:19.514Z,30.30
2022-07-31T10:13:47.093Z,30.60
2022-07-31T10:16:14.309Z,30.70
2022-07-31T10:18:44.565Z,30.80
2022-07-31T10:21:11.680Z,30.80
2022-07-31T10:23:41.862Z,30.80
2022-07-31T10:26:08.738Z,30.60
2022-07-31T10:28:38.708Z,30.70
2022-07-31T10:31:06.343Z,30.70
2022-07-31T10:33:48.508Z,30.80
2022-07-31T10:36:22.633Z,30.90
2022-07-31T10:39:08.271Z,30.90
2022-07-31T10:41:42.384Z,31.10
2022-07-31T10:44:13.540Z,31.20
2022-07-31T10:46:40.423Z,31.20
2022-07-31T10:49:08.746Z,31.20
2022-07-31T10:51:45.900Z,31.20
2022-07-31T10:54:14.349Z,31.40
2022-07-31T10:56:43.353Z,31.40
2022-07-31T10:59:10.554Z,31.50
2022-07-31T11:01:53.611Z,31.40
2022-07-31T11:04:32.175Z,31.20
2022-07-31T11:06:59.324Z,31.10
2022-07-31T11:09:26.912Z,30.90
2022-07-31T11:11:53.888Z,30.70
2022-07-31T11:14:38.355Z,30.40
2022-07-31T11:17:05.687Z,30.30
2022-07-31T11:19:41.446Z,30.00
2022-07-31T11:22:30.578Z,29.80
2022-07-31T11:24:59.616Z,29.60
2022-07-31T11:27:29.981Z,29.40
2022-07-31T11:30:06.656Z,29.50
2022-07-31T11:32:36.723Z,29.90
2022-07-31T11:35:03.965Z,30.40
2022-07-31T11:37:46.430Z,30.90
2022-07-31T11:40:22.407Z,31.20
2022-07-31T11:43:23.512Z,31.40
2022-07-31T11:45:52.800Z,31.50
2022-07-31T11:48:20.108Z,31.60
2022-07-31T11:50:47.326Z,31.90
2022-07-31T11:53:14.314Z,32.10
2022-07-31T11:55:44.961Z,32.20
2022-07-31T11:58:12.100Z,32.20
2022-07-31T12:00:39.127Z,32.10
2022-07-31T12:03:06.117Z,31.80
2022-07-31T12:05:38.139Z,31.80
2022-07-31T12:08:06.694Z,31.80
2022-07-31T12:10:33.692Z,32.00
2022-07-31T12:13:00.616Z,32.00
2022-07-31T12:15:27.582Z,32.10
2022-07-31T12:18:05.355Z,32.20
2022-07-31T12:20:36.832Z,32.10
2022-07-31T12:23:04.935Z,32.20
2022-07-31T12:25:42.042Z,32.40
2022-07-31T12:28:09.577Z,32.30
2022-07-31T12:30:36.676Z,32.30
2022-07-31T12:33:07.642Z,32.40
2022-07-31T12:35:56.143Z,32.40
2022-07-31T12:38:40.781Z,32.50
2022-07-31T12:41:11.913Z,32.30
2022-07-31T12:43:38.878Z,32.20
2022-07-31T12:46:17.136Z,32.20
2022-07-31T12:48:46.249Z,32.30
2022-07-31T12:51:13.555Z,32.30
2022-07-31T12:53:40.528Z,32.30
2022-07-31T12:56:11.298Z,32.30
2022-07-31T12:58:38.306Z,32.20
2022-07-31T13:01:05.348Z,32.20
2022-07-31T13:03:45.660Z,32.30
2022-07-31T13:06:16.401Z,32.30
2022-07-31T13:08:44.107Z,32.20
2022-07-31T13:11:11.293Z,32.20
2022-07-31T13:13:38.205Z,32.30
2022-07-31T13:16:05.242Z,32.40
2022-07-31T13:18:33.046Z,32.50
2022-07-31T13:21:00.920Z,32.60
2022-07-31T13:23:28.161Z,32.70
2022-07-31T13:25:55.117Z,32.70
2022-07-31T13:28:22.070Z,32.70
2022-07-31T13:30:54.590Z,32.70
2022-07-31T13:33:22.056Z,32.60
2022-07-31T13:35:48.931Z,32.50
2022-07-31T13:38:15.930Z,32.40
2022-07-31T13:41:01.231Z,32.30
2022-07-31T13:43:28.215Z,32.40
2022-07-31T13:45:55.189Z,32.40
2022-07-31T13:48:22.165Z,32.30
2022-07-31T13:50:49.097Z,32.30
2022-07-31T13:53:15.982Z,32.20
2022-07-31T13:55:45.120Z,32.20
2022-07-31T13:58:15.754Z,32.20
2022-07-31T14:00:42.646Z,32.20
2022-07-31T14:03:09.584Z,32.30
2022-07-31T14:05:40.524Z,32.30
2022-07-31T14:08:32.569Z,32.20
2022-07-31T14:10:56.173Z,32.10
2022-07-31T14:13:23.187Z,32.00
2022-07-31T14:15:50.106Z,32.00
2022-07-31T14:18:17.059Z,32.00
2022-07-31T14:20:44.026Z,32.00
2022-07-31T14:23:10.953Z,32.00
2022-07-31T14:25:38.335Z,32.00
2022-07-31T14:28:05.651Z,32.00
2022-07-31T14:30:33.194Z,32.20
2022-07-31T14:33:01.720Z,32.30
2022-07-31T14:35:28.618Z,32.20
2022-07-31T14:37:55.743Z,32.20
2022-07-31T14:40:22.675Z,32.10
2022-07-31T14:42:49.595Z,32.10
2022-07-31T14:45:16.532Z,32.10
2022-07-31T14:47:46.463Z,32.20
2022-07-31T14:50:19.271Z,32.00
2022-07-31T14:52:47.215Z,32.00
2022-07-31T14:55:14.163Z,31.80
2022-07-31T14:57:41.138Z,31.80
2022-07-31T15:00:14.415Z,31.80
2022-07-31T15:02:44.410Z,31.70
2022-07-31T15:06:37.615Z,31.60
2022-07-31T15:07:58.824Z,31.40
2022-07-31T15:10:25.700Z,31.30
2022-07-31T15:12:52.580Z,31.30
2022-07-31T15:15:19.520Z,31.30
2022-07-31T15:17:46.423Z,31.20
2022-07-31T15:20:13.883Z,31.10
2022-07-31T15:22:40.781Z,30.90
2022-07-31T15:25:08.082Z,30.80
2022-07-31T15:27:34.974Z,30.60
2022-07-31T15:30:06.887Z,30.60
2022-07-31T15:32:38.387Z,30.50
2022-07-31T15:35:06.022Z,30.40
2022-07-31T15:37:36.905Z,30.40
2022-07-31T15:40:04.748Z,30.30
2022-07-31T15:42:37.809Z,30.20
2022-07-31T15:45:04.897Z,30.10
2022-07-31T15:47:31.806Z,30.10
2022-07-31T15:49:58.703Z,30.10
2022-07-31T15:52:25.646Z,30.00
2022-07-31T15:54:53.134Z,29.90
2022-07-31T15:57:21.141Z,29.80
2022-07-31T15:59:48.536Z,29.80
2022-07-31T16:02:15.661Z,29.80
2022-07-31T16:04:52.649Z,29.70
2022-07-31T16:08:31.722Z,29.60
2022-07-31T16:10:16.351Z,29.60
2022-07-31T16:12:48.056Z,29.60
2022-07-31T16:15:16.037Z,29.60
2022-07-31T16:17:43.225Z,29.60
2022-07-31T16:20:10.983Z,29.50
2022-07-31T16:22:38.140Z,29.50
2022-07-31T16:25:05.509Z,29.40
2022-07-31T16:27:32.586Z,29.40
2022-07-31T16:30:02.060Z,29.30
2022-07-31T16:32:29.477Z,29.20
2022-07-31T16:35:01.097Z,29.20
2022-07-31T16:37:50.050Z,29.10
2022-07-31T16:40:28.789Z,29.10
2022-07-31T16:43:01.061Z,29.10
2022-07-31T16:45:28.578Z,29.10
2022-07-31T16:47:55.531Z,29.10
2022-07-31T16:50:22.538Z,29.00
2022-07-31T16:52:54.234Z,29.00
2022-07-31T16:55:59.827Z,29.00
2022-07-31T16:58:11.524Z,29.00
2022-07-31T17:00:39.252Z,29.00
2022-07-31T17:03:58.748Z,28.90
2022-07-31T17:05:59.705Z,28.90
2022-07-31T17:08:26.660Z,28.90
2022-07-31T17:10:54.871Z,28.80
2022-07-31T17:13:22.257Z,28.80
2022-07-31T17:15:49.176Z,28.70
2022-07-31T17:18:16.288Z,28.70
2022-07-31T17:20:49.101Z,28.70
2022-07-31T17:23:16.163Z,28.70
2022-07-31T17:26:04.083Z,28.60
2022-07-31T17:28:31.024Z,28.50
2022-07-31T17:30:57.963Z,28.40
2022-07-31T17:33:54.625Z,28.40
2022-07-31T17:36:13.073Z,28.40
2022-07-31T17:38:40.215Z,28.30
2022-07-31T17:41:25.534Z,28.30
2022-07-31T17:46:43.941Z,28.20
2022-07-31T17:47:07.691Z,28.30
2022-07-31T17:49:19.721Z,28.20
2022-07-31T17:51:58.825Z,28.20
2022-07-31T17:54:27.981Z,28.20
2022-07-31T17:56:54.897Z,28.20
2022-07-31T17:59:23.304Z,28.00
2022-07-31T18:01:51.871Z,28.00
2022-07-31T18:04:19.584Z,27.80
2022-07-31T18:06:48.563Z,27.80
2022-07-31T18:09:20.711Z,27.70
2022-07-31T18:11:47.617Z,27.60
2022-07-31T18:14:18.186Z,27.50
2022-07-31T18:16:45.867Z,27.40
2022-07-31T18:19:12.997Z,27.30
2022-07-31T18:21:40.342Z,27.20
2022-07-31T18:24:07.855Z,27.10
2022-07-31T18:26:35.640Z,27.10
2022-07-31T18:29:02.603Z,27.00
2022-07-31T18:31:34.117Z,26.90
2022-07-31T18:34:03.331Z,26.80
2022-07-31T18:36:30.471Z,26.60
2022-07-31T18:38:57.920Z,26.50
2022-07-31T18:41:25.445Z,26.50
2022-07-31T18:43:52.548Z,26.50
2022-07-31T18:46:20.429Z,26.40
2022-07-31T18:48:50.673Z,26.30
2022-07-31T18:51:23.075Z,26.30
2022-07-31T18:53:50.212Z,26.20
2022-07-31T18:56:17.152Z,26.10
2022-07-31T18:58:44.241Z,26.00
2022-07-31T19:01:11.157Z,26.00
2022-07-31T19:03:38.326Z,26.00
2022-07-31T19:06:05.439Z,25.90
2022-07-31T19:08:32.377Z,25.80
2022-07-31T19:10:59.894Z,25.80
2022-07-31T19:13:26.864Z,25.70
2022-07-31T19:15:53.732Z,25.60
2022-07-31T19:18:28.355Z,25.40
2022-07-31T19:21:17.722Z,25.30
2022-07-31T19:23:43.600Z,25.30
2022-07-31T19:26:10.540Z,25.20
2022-07-31T19:28:38.400Z,25.20
2022-07-31T19:31:05.558Z,25.10
2022-07-31T19:33:32.668Z,25.00
2022-07-31T19:36:02.295Z,25.00
2022-07-31T19:38:30.826Z,24.90
2022-07-31T19:40:57.714Z,24.90
2022-07-31T19:43:24.739Z,24.90
2022-07-31T19:46:09.796Z,24.90
2022-07-31T19:48:40.756Z,24.80
2022-07-31T19:51:07.919Z,24.70
2022-07-31T19:53:34.982Z,24.60
2022-07-31T19:56:05.747Z,24.40
2022-07-31T19:58:34.699Z,24.40
2022-07-31T20:01:05.900Z,24.40
2022-07-31T20:03:33.012Z,24.30
2022-07-31T20:06:00.557Z,24.30
2022-07-31T20:08:32.886Z,24.30
2022-07-31T20:11:03.740Z,24.20
2022-07-31T20:13:34.487Z,24.10
2022-07-31T20:16:05.640Z,24.10
2022-07-31T20:18:32.644Z,24.10
2022-07-31T20:21:03.681Z,24.00
2022-07-31T20:23:31.539Z,24.00
2022-07-31T20:25:58.787Z,23.90
2022-07-31T20:28:26.387Z,23.90
2022-07-31T20:30:53.369Z,23.90
2022-07-31T20:33:20.512Z,23.90
2022-07-31T20:35:49.921Z,23.90
2022-07-31T20:38:18.106Z,23.80
2022-07-31T20:40:48.131Z,23.80
2022-07-31T20:43:25.911Z,23.80
2022-07-31T20:45:53.175Z,23.70
2022-07-31T20:48:22.882Z,23.70
2022-07-31T20:50:50.175Z,23.70
2022-07-31T20:53:17.414Z,23.60
2022-07-31T20:55:49.930Z,23.60
2022-07-31T20:58:18.410Z,23.50
2022-07-31T21:00:47.736Z,23.50
2022-07-31T21:03:26.591Z,23.50
2022-07-31T21:05:53.483Z,23.30
2022-07-31T21:08:20.363Z,23.20
2022-07-31T21:10:47.362Z,23.20
2022-07-31T21:13:14.306Z,23.10
2022-07-31T21:15:44.848Z,23.00
2022-07-31T21:18:16.126Z,23.00
2022-07-31T21:20:52.341Z,23.10
2022-07-31T21:23:23.276Z,23.00
2022-07-31T21:25:50.993Z,22.90
2022-07-31T21:28:18.103Z,22.90
2022-07-31T21:30:45.147Z,22.80
2022-07-31T21:33:12.052Z,22.60
2022-07-31T21:35:40.229Z,22.50
2022-07-31T21:38:10.485Z,22.50
2022-07-31T21:40:39.026Z,22.50
2022-07-31T21:43:06.181Z,22.50
2022-07-31T21:45:51.130Z,22.50
2022-07-31T21:48:20.105Z,22.50
2022-07-31T21:50:47.167Z,22.40
2022-07-31T21:53:14.122Z,22.40
2022-07-31T21:55:41.059Z,22.30
2022-07-31T21:58:08.155Z,22.20
2022-07-31T22:00:35.052Z,22.20
2022-07-31T22:03:03.111Z,22.20
2022-07-31T22:05:48.961Z,22.10
2022-07-31T22:08:15.863Z,22.00
2022-07-31T22:10:42.762Z,21.90
2022-07-31T22:13:09.741Z,21.80
2022-07-31T22:15:59.054Z,21.70
2022-07-31T22:18:23.546Z,21.70
2022-07-31T22:20:53.820Z,21.70
2022-07-31T22:23:21.036Z,21.70
2022-07-31T22:25:49.244Z,21.70
2022-07-31T22:28:19.152Z,21.70
2022-07-31T22:30:46.193Z,21.70
2022-07-31T22:33:13.130Z,21.70
2022-07-31T22:35:41.033Z,21.70
2022-07-31T22:38:08.248Z,21.70
2022-07-31T22:40:35.431Z,21.60
2022-07-31T22:43:02.783Z,21.60
2022-07-31T22:45:30.694Z,21.60
2022-07-31T22:47:57.712Z,21.50
2022-07-31T22:50:24.768Z,21.60
2022-07-31T22:52:51.840Z,21.60
2022-07-31T22:55:18.867Z,21.60
2022-07-31T22:57:45.818Z,21.50
2022-07-31T23:00:13.386Z,21.50
2022-07-31T23:02:40.756Z,21.40
2022-07-31T23:05:08.297Z,21.30
2022-07-31T23:07:35.273Z,21.20
2022-07-31T23:10:02.392Z,21.20
2022-07-31T23:12:29.496Z,21.20
2022-07-31T23:14:56.572Z,21.20
2022-07-31T23:17:23.909Z,21.10
2022-07-31T23:19:52.710Z,21.20
2022-07-31T23:22:38.641Z,21.20
2022-07-31T23:25:05.886Z,21.10
2022-07-31T23:27:33.358Z,20.90
2022-07-31T23:30:00.525Z,20.90
2022-07-31T23:32:27.955Z,21.00
2022-07-31T23:34:54.958Z,21.00
2022-07-31T23:37:21.883Z,21.00
2022-07-31T23:39:48.807Z,21.00
2022-07-31T23:42:34.599Z,21.00
2022-07-31T23:45:01.678Z,20.90
2022-07-31T23:47:44.820Z,20.90
2022-07-31T23:50:13.758Z,20.80
2022-07-31T23:52:40.745Z,20.80
2022-07-31T23:55:07.845Z,20.70
2022-07-31T23:57:36.312Z,20.70
